sensor_id;sensor_type;location;lat;lon;timestamp;pressure;altitude;pressure_sealevel;temperature;humidity
63903;BME280;50072;50.678;13.938;2023-07-28T00:00:10;98620.22;;;15.85;100.00
63903;BME280;50072;50.678;13.938;2023-07-28T00:02:56;98621.16;;;15.69;100.00
63903;BME280;50072;50.678;13.938;2023-07-28T00:05:24;98620.13;;;15.58;100.00
63903;BME280;50072;50.678;13.938;2023-07-28T00:07:56;98616.91;;;15.51;100.00
63903;BME280;50072;50.678;13.938;2023-07-28T00:10:22;98613.63;;;15.46;100.00
63903;BME280;50072;50.678;13.938;2023-07-28T00:12:48;98610.47;;;15.53;100.00
63903;BME280;50072;50.678;13.938;2023-07-28T00:15:16;98612.69;;;15.61;100.00
63903;BME280;50072;50.678;13.938;2023-07-28T00:17:45;98618.06;;;15.61;100.00
63903;BME280;50072;50.678;13.938;2023-07-28T00:20:11;98611.81;;;15.61;100.00
63903;BME280;50072;50.678;13.938;2023-07-28T00:22:37;98607.69;;;15.55;100.00
63903;BME280;50072;50.678;13.938;2023-07-28T00:25:03;98613.53;;;15.62;100.00
63903;BME280;50072;50.678;13.938;2023-07-28T00:27:31;98604.78;;;15.73;100.00
63903;BME280;50072;50.678;13.938;2023-07-28T00:29:57;98609.69;;;15.66;100.00
63903;BME280;50072;50.678;13.938;2023-07-28T00:32:23;98607.56;;;15.71;100.00
63903;BME280;50072;50.678;13.938;2023-07-28T00:34:49;98599.00;;;15.79;100.00
63903;BME280;50072;50.678;13.938;2023-07-28T00:37:14;98598.34;;;15.90;100.00
63903;BME280;50072;50.678;13.938;2023-07-28T00:39:41;98602.19;;;15.85;100.00
63903;BME280;50072;50.678;13.938;2023-07-28T00:42:07;98593.03;;;15.88;100.00
63903;BME280;50072;50.678;13.938;2023-07-28T00:44:35;98589.19;;;15.92;100.00
63903;BME280;50072;50.678;13.938;2023-07-28T00:47:01;98594.84;;;15.87;100.00
63903;BME280;50072;50.678;13.938;2023-07-28T00:49:26;98595.53;;;15.91;100.00
63903;BME280;50072;50.678;13.938;2023-07-28T00:51:52;98591.69;;;15.95;100.00
63903;BME280;50072;50.678;13.938;2023-07-28T00:54:21;98581.84;;;15.94;100.00
63903;BME280;50072;50.678;13.938;2023-07-28T00:56:49;98587.03;;;15.97;100.00
63903;BME280;50072;50.678;13.938;2023-07-28T00:59:16;98585.13;;;15.99;100.00
63903;BME280;50072;50.678;13.938;2023-07-28T01:01:54;98581.66;;;15.97;100.00
63903;BME280;50072;50.678;13.938;2023-07-28T01:04:21;98587.34;;;15.93;100.00
63903;BME280;50072;50.678;13.938;2023-07-28T01:07:01;98584.94;;;15.88;100.00
63903;BME280;50072;50.678;13.938;2023-07-28T01:10:02;98584.94;;;15.88;100.00
63903;BME280;50072;50.678;13.938;2023-07-28T01:12:28;98579.47;;;15.90;100.00
63903;BME280;50072;50.678;13.938;2023-07-28T01:14:54;98572.91;;;15.94;100.00
63903;BME280;50072;50.678;13.938;2023-07-28T01:17:20;98582.06;;;15.91;100.00
63903;BME280;50072;50.678;13.938;2023-07-28T01:19:55;98569.13;;;15.96;100.00
63903;BME280;50072;50.678;13.938;2023-07-28T01:25:06;98571.94;;;15.95;100.00
63903;BME280;50072;50.678;13.938;2023-07-28T01:27:45;98568.94;;;15.99;100.00
63903;BME280;50072;50.678;13.938;2023-07-28T01:30:14;98564.81;;;15.94;100.00
63903;BME280;50072;50.678;13.938;2023-07-28T01:32:49;98566.63;;;15.93;100.00
63903;BME280;50072;50.678;13.938;2023-07-28T01:35:15;98569.53;;;15.90;100.00
63903;BME280;50072;50.678;13.938;2023-07-28T01:37:42;98567.88;;;16.02;100.00
63903;BME280;50072;50.678;13.938;2023-07-28T01:40:24;98566.78;;;16.04;100.00
63903;BME280;50072;50.678;13.938;2023-07-28T01:42:50;98562.16;;;16.07;100.00
63903;BME280;50072;50.678;13.938;2023-07-28T01:45:17;98564.66;;;16.10;100.00
63903;BME280;50072;50.678;13.938;2023-07-28T01:47:43;98567.25;;;16.11;100.00
63903;BME280;50072;50.678;13.938;2023-07-28T01:50:11;98563.50;;;16.14;100.00
63903;BME280;50072;50.678;13.938;2023-07-28T01:52:38;98550.22;;;16.11;100.00
63903;BME280;50072;50.678;13.938;2023-07-28T01:55:04;98549.75;;;16.04;100.00
63903;BME280;50072;50.678;13.938;2023-07-28T01:57:34;98552.53;;;16.02;100.00
63903;BME280;50072;50.678;13.938;2023-07-28T02:00:06;98551.00;;;15.98;100.00
63903;BME280;50072;50.678;13.938;2023-07-28T02:02:32;98550.03;;;15.99;100.00
63903;BME280;50072;50.678;13.938;2023-07-28T02:04:59;98547.56;;;15.96;100.00
63903;BME280;50072;50.678;13.938;2023-07-28T02:07:32;98546.47;;;15.99;100.00
63903;BME280;50072;50.678;13.938;2023-07-28T02:10:00;98550.25;;;15.96;100.00
63903;BME280;50072;50.678;13.938;2023-07-28T02:12:27;98546.97;;;15.91;100.00
63903;BME280;50072;50.678;13.938;2023-07-28T02:14:54;98544.16;;;15.93;100.00
63903;BME280;50072;50.678;13.938;2023-07-28T02:17:25;98547.72;;;15.93;100.00
63903;BME280;50072;50.678;13.938;2023-07-28T02:19:53;98551.31;;;15.94;100.00
63903;BME280;50072;50.678;13.938;2023-07-28T02:22:21;98548.63;;;15.94;100.00
63903;BME280;50072;50.678;13.938;2023-07-28T02:24:51;98551.00;;;15.98;100.00
63903;BME280;50072;50.678;13.938;2023-07-28T02:27:22;98550.03;;;15.99;100.00
63903;BME280;50072;50.678;13.938;2023-07-28T02:29:54;98545.81;;;15.95;100.00
63903;BME280;50072;50.678;13.938;2023-07-28T02:32:22;98548.31;;;15.98;100.00
63903;BME280;50072;50.678;13.938;2023-07-28T02:34:49;98550.25;;;15.96;100.00
63903;BME280;50072;50.678;13.938;2023-07-28T02:37:17;98547.56;;;15.96;100.00
63903;BME280;50072;50.678;13.938;2023-07-28T02:39:43;98546.94;;;16.05;100.00
63903;BME280;50072;50.678;13.938;2023-07-28T02:42:22;98561.00;;;16.11;100.00
63903;BME280;50072;50.678;13.938;2023-07-28T02:44:49;98561.75;;;16.13;100.00
63903;BME280;50072;50.678;13.938;2023-07-28T02:47:16;98562.72;;;16.12;100.00
63903;BME280;50072;50.678;13.938;2023-07-28T02:49:47;98556.47;;;16.11;100.00
63903;BME280;50072;50.678;13.938;2023-07-28T02:52:13;98564.47;;;16.13;100.00
63903;BME280;50072;50.678;13.938;2023-07-28T02:54:44;98551.75;;;16.15;100.00
63903;BME280;50072;50.678;13.938;2023-07-28T02:57:17;98549.16;;;16.13;100.00
63903;BME280;50072;50.678;13.938;2023-07-28T02:59:43;98544.66;;;16.27;100.00
63903;BME280;50072;50.678;13.938;2023-07-28T03:02:14;98541.97;;;16.27;100.00
63903;BME280;50072;50.678;13.938;2023-07-28T03:04:41;98539.09;;;16.15;100.00
63903;BME280;50072;50.678;13.938;2023-07-28T03:07:19;98546.44;;;16.13;100.00
63903;BME280;50072;50.678;13.938;2023-07-28T03:09:54;98530.78;;;16.18;100.00
63903;BME280;50072;50.678;13.938;2023-07-28T03:12:25;98537.34;;;16.14;100.00
63903;BME280;50072;50.678;13.938;2023-07-28T03:14:54;98545.56;;;16.13;100.00
63903;BME280;50072;50.678;13.938;2023-07-28T03:17:21;98540.75;;;16.18;100.00
63903;BME280;50072;50.678;13.938;2023-07-28T03:19:51;98542.59;;;16.03;100.00
63903;BME280;50072;50.678;13.938;2023-07-28T03:22:21;98537.47;;;16.13;100.00
63903;BME280;50072;50.678;13.938;2023-07-28T03:24:53;98536.03;;;16.07;100.00
63903;BME280;50072;50.678;13.938;2023-07-28T03:27:25;98539.31;;;16.12;100.00
63903;BME280;50072;50.678;13.938;2023-07-28T03:29:51;98546.53;;;16.12;100.00
63903;BME280;50072;50.678;13.938;2023-07-28T03:32:24;98553.88;;;16.10;100.00
63903;BME280;50072;50.678;13.938;2023-07-28T03:34:50;98544.03;;;16.09;100.00
63903;BME280;50072;50.678;13.938;2023-07-28T03:37:20;98550.22;;;16.11;100.00
63903;BME280;50072;50.678;13.938;2023-07-28T03:39:45;98543.66;;;16.15;100.00
63903;BME280;50072;50.678;13.938;2023-07-28T03:42:13;98543.81;;;16.12;100.00
63903;BME280;50072;50.678;13.938;2023-07-28T03:44:40;98550.22;;;16.11;100.00
63903;BME280;50072;50.678;13.938;2023-07-28T03:47:08;98534.28;;;16.20;100.00
63903;BME280;50072;50.678;13.938;2023-07-28T03:49:40;98539.03;;;16.30;100.00
63903;BME280;50072;50.678;13.938;2023-07-28T03:52:06;98535.38;;;16.31;100.00
63903;BME280;50072;50.678;13.938;2023-07-28T03:54:33;98540.53;;;16.21;100.00
63903;BME280;50072;50.678;13.938;2023-07-28T03:57:00;98535.88;;;16.23;100.00
63903;BME280;50072;50.678;13.938;2023-07-28T03:59:26;98537.41;;;16.27;100.00
63903;BME280;50072;50.678;13.938;2023-07-28T04:01:53;98535.69;;;16.26;100.00
63903;BME280;50072;50.678;13.938;2023-07-28T04:04:19;98539.34;;;16.25;100.00
63903;BME280;50072;50.678;13.938;2023-07-28T04:06:46;98549.28;;;16.25;100.00
63903;BME280;50072;50.678;13.938;2023-07-28T04:09:14;98551.13;;;16.24;100.00
63903;BME280;50072;50.678;13.938;2023-07-28T04:11:41;98541.63;;;16.31;100.00
63903;BME280;50072;50.678;13.938;2023-07-28T04:14:07;98543.53;;;16.44;100.00
63903;BME280;50072;50.678;13.938;2023-07-28T04:16:33;98543.59;;;16.29;100.00
63903;BME280;50072;50.678;13.938;2023-07-28T04:19:00;98556.19;;;16.29;100.00
63903;BME280;50072;50.678;13.938;2023-07-28T04:21:27;98562.59;;;16.28;100.00
63903;BME280;50072;50.678;13.938;2023-07-28T04:23:54;98564.97;;;16.32;100.00
63903;BME280;50072;50.678;13.938;2023-07-28T04:26:20;98567.84;;;16.44;100.00
63903;BME280;50072;50.678;13.938;2023-07-28T04:28:46;98568.59;;;16.46;100.00
63903;BME280;50072;50.678;13.938;2023-07-28T04:31:12;98573.38;;;16.55;100.00
63903;BME280;50072;50.678;13.938;2023-07-28T04:33:41;98572.81;;;16.50;100.00
63903;BME280;50072;50.678;13.938;2023-07-28T04:36:08;98569.38;;;16.48;100.00
63903;BME280;50072;50.678;13.938;2023-07-28T04:38:33;98573.22;;;16.44;100.00
63903;BME280;50072;50.678;13.938;2023-07-28T04:41:00;98561.53;;;16.43;100.00
63903;BME280;50072;50.678;13.938;2023-07-28T04:43:26;98562.63;;;16.41;100.00
63903;BME280;50072;50.678;13.938;2023-07-28T04:45:52;98560.47;;;16.46;100.00
63903;BME280;50072;50.678;13.938;2023-07-28T04:48:17;98563.19;;;16.46;100.00
63903;BME280;50072;50.678;13.938;2023-07-28T04:50:45;98572.28;;;16.45;100.00
63903;BME280;50072;50.678;13.938;2023-07-28T04:53:11;98574.97;;;16.45;100.00
63903;BME280;50072;50.678;13.938;2023-07-28T04:55:37;98577.03;;;16.54;100.00
63903;BME280;50072;50.678;13.938;2023-07-28T04:58:02;98581.88;;;16.49;100.00
63903;BME280;50072;50.678;13.938;2023-07-28T05:00:35;98576.94;;;16.55;100.00
63903;BME280;50072;50.678;13.938;2023-07-28T05:03:03;98563.13;;;16.60;100.00
63903;BME280;50072;50.678;13.938;2023-07-28T05:05:29;98566.09;;;16.83;100.00
63903;BME280;50072;50.678;13.938;2023-07-28T05:07:58;98561.47;;;16.85;100.00
63903;BME280;50072;50.678;13.938;2023-07-28T05:10:24;98557.44;;;16.78;100.00
63903;BME280;50072;50.678;13.938;2023-07-28T05:12:55;98569.00;;;16.80;100.00
63903;BME280;50072;50.678;13.938;2023-07-28T05:15:23;98573.13;;;16.85;100.00
63903;BME280;50072;50.678;13.938;2023-07-28T05:17:49;98575.94;;;16.84;100.00
63903;BME280;50072;50.678;13.938;2023-07-28T05:20:24;98579.38;;;16.86;100.00
63903;BME280;50072;50.678;13.938;2023-07-28T05:22:54;98579.38;;;16.86;100.00
63903;BME280;50072;50.678;13.938;2023-07-28T05:25:24;98580.13;;;16.75;100.00
63903;BME280;50072;50.678;13.938;2023-07-28T05:27:54;98591.50;;;16.80;100.00
63903;BME280;50072;50.678;13.938;2023-07-28T05:30:25;98591.03;;;16.73;100.00
63903;BME280;50072;50.678;13.938;2023-07-28T05:32:54;98595.06;;;16.81;100.00
63903;BME280;50072;50.678;13.938;2023-07-28T05:35:20;98589.44;;;16.84;100.00
63903;BME280;50072;50.678;13.938;2023-07-28T05:37:47;98596.34;;;16.75;100.00
63903;BME280;50072;50.678;13.938;2023-07-28T05:40:14;98595.50;;;16.74;100.00
63903;BME280;50072;50.678;13.938;2023-07-28T05:42:39;98596.25;;;16.77;100.00
63903;BME280;50072;50.678;13.938;2023-07-28T05:45:06;98610.31;;;16.82;100.00
63903;BME280;50072;50.678;13.938;2023-07-28T05:47:32;98603.91;;;16.83;100.00
63903;BME280;50072;50.678;13.938;2023-07-28T05:49:58;98612.03;;;16.83;100.00
63903;BME280;50072;50.678;13.938;2023-07-28T05:52:24;98612.09;;;16.96;100.00
63903;BME280;50072;50.678;13.938;2023-07-28T05:54:50;98617.91;;;16.89;100.00
63903;BME280;50072;50.678;13.938;2023-07-28T05:57:16;98604.78;;;17.11;100.00
63903;BME280;50072;50.678;13.938;2023-07-28T05:59:44;98605.53;;;17.13;100.00
63903;BME280;50072;50.678;13.938;2023-07-28T06:02:10;98608.22;;;17.13;100.00
63903;BME280;50072;50.678;13.938;2023-07-28T06:04:36;98603.16;;;17.21;100.00
63903;BME280;50072;50.678;13.938;2023-07-28T06:07:02;98601.13;;;17.12;100.00
63903;BME280;50072;50.678;13.938;2023-07-28T06:09:30;98604.03;;;17.34;100.00
63903;BME280;50072;50.678;13.938;2023-07-28T06:11:55;98602.59;;;17.29;100.00
63903;BME280;50072;50.678;13.938;2023-07-28T06:14:21;98619.03;;;17.13;100.00
63903;BME280;50072;50.678;13.938;2023-07-28T06:16:48;98615.16;;;17.17;100.00
63903;BME280;50072;50.678;13.938;2023-07-28T06:19:14;98619.16;;;17.24;100.00
63903;BME280;50072;50.678;13.938;2023-07-28T06:21:42;98614.31;;;17.29;100.00
63903;BME280;50072;50.678;13.938;2023-07-28T06:24:09;98614.09;;;17.32;100.00
63903;BME280;50072;50.678;13.938;2023-07-28T06:26:36;98614.31;;;17.42;100.00
63903;BME280;50072;50.678;13.938;2023-07-28T06:29:02;98620.69;;;17.41;100.00
63903;BME280;50072;50.678;13.938;2023-07-28T06:31:27;98627.00;;;17.54;100.00
63903;BME280;50072;50.678;13.938;2023-07-28T06:33:54;98632.06;;;17.59;100.00
63903;BME280;50072;50.678;13.938;2023-07-28T06:36:19;98636.41;;;17.49;100.00
63903;BME280;50072;50.678;13.938;2023-07-28T06:38:50;98631.97;;;17.48;100.00
63903;BME280;50072;50.678;13.938;2023-07-28T06:41:23;98635.09;;;17.54;100.00
63903;BME280;50072;50.678;13.938;2023-07-28T06:43:50;98632.47;;;17.53;100.00
63903;BME280;50072;50.678;13.938;2023-07-28T06:46:16;98633.38;;;17.53;100.00
63903;BME280;50072;50.678;13.938;2023-07-28T06:48:42;98635.50;;;17.61;100.00
63903;BME280;50072;50.678;13.938;2023-07-28T06:51:07;98633.25;;;17.81;100.00
63903;BME280;50072;50.678;13.938;2023-07-28T06:53:33;98653.94;;;17.82;100.00
63903;BME280;50072;50.678;13.938;2023-07-28T06:56:02;98644.41;;;17.89;100.00
63903;BME280;50072;50.678;13.938;2023-07-28T06:58:34;98646.66;;;17.69;100.00
63903;BME280;50072;50.678;13.938;2023-07-28T07:01:00;98653.16;;;17.67;100.00
63903;BME280;50072;50.678;13.938;2023-07-28T07:03:25;98656.09;;;17.76;100.00
63903;BME280;50072;50.678;13.938;2023-07-28T07:05:51;98657.06;;;17.75;100.00
63903;BME280;50072;50.678;13.938;2023-07-28T07:08:17;98656.94;;;17.64;100.00
63903;BME280;50072;50.678;13.938;2023-07-28T07:10:49;98661.94;;;17.83;100.00
63903;BME280;50072;50.678;13.938;2023-07-28T07:13:16;98661.41;;;17.91;100.00
63903;BME280;50072;50.678;13.938;2023-07-28T07:15:42;98652.88;;;17.97;100.00
63903;BME280;50072;50.678;13.938;2023-07-28T07:18:09;98654.91;;;18.06;100.00
63903;BME280;50072;50.678;13.938;2023-07-28T07:20:37;98653.94;;;18.07;100.00
63903;BME280;50072;50.678;13.938;2023-07-28T07:23:04;98660.31;;;18.06;100.00
63903;BME280;50072;50.678;13.938;2023-07-28T07:25:30;98658.06;;;18.00;100.00
63903;BME280;50072;50.678;13.938;2023-07-28T07:27:56;98660.53;;;18.03;100.00
63903;BME280;50072;50.678;13.938;2023-07-28T07:30:22;98655.09;;;18.16;100.00
63903;BME280;50072;50.678;13.938;2023-07-28T07:32:50;98656.72;;;18.19;100.00
63903;BME280;50072;50.678;13.938;2023-07-28T07:35:16;98660.16;;;18.21;100.00
63903;BME280;50072;50.678;13.938;2023-07-28T07:37:48;98654.53;;;18.24;100.00
63903;BME280;50072;50.678;13.938;2023-07-28T07:40:14;98658.13;;;18.24;100.00
63903;BME280;50072;50.678;13.938;2023-07-28T07:42:52;98663.66;;;18.23;100.00
63903;BME280;50072;50.678;13.938;2023-07-28T07:45:18;98669.22;;;18.33;100.00
63903;BME280;50072;50.678;13.938;2023-07-28T07:47:46;98665.03;;;18.28;100.00
63903;BME280;50072;50.678;13.938;2023-07-28T07:50:12;98663.19;;;18.29;100.00
63903;BME280;50072;50.678;13.938;2023-07-28T07:52:39;98669.16;;;18.34;100.00
63903;BME280;50072;50.678;13.938;2023-07-28T07:55:09;98666.97;;;18.26;100.00
63903;BME280;50072;50.678;13.938;2023-07-28T07:57:36;98666.13;;;18.26;100.00
63903;BME280;50072;50.678;13.938;2023-07-28T08:00:02;98661.53;;;18.39;100.00
63903;BME280;50072;50.678;13.938;2023-07-28T08:02:29;98667.91;;;18.38;100.00
63903;BME280;50072;50.678;13.938;2023-07-28T08:04:54;98665.75;;;18.43;100.00
63903;BME280;50072;50.678;13.938;2023-07-28T08:07:21;98662.94;;;18.45;100.00
63903;BME280;50072;50.678;13.938;2023-07-28T08:09:48;98669.28;;;18.57;100.00
63903;BME280;50072;50.678;13.938;2023-07-28T08:12:14;98662.72;;;18.72;100.00
63903;BME280;50072;50.678;13.938;2023-07-28T08:14:40;98666.91;;;18.89;100.00
63903;BME280;50072;50.678;13.938;2023-07-28T08:17:07;98673.41;;;18.87;100.00
63903;BME280;50072;50.678;13.938;2023-07-28T08:19:33;98674.00;;;19.03;100.00
63903;BME280;50072;50.678;13.938;2023-07-28T08:22:01;98674.78;;;18.92;100.00
63903;BME280;50072;50.678;13.938;2023-07-28T08:24:29;98677.50;;;18.92;100.00
63903;BME280;50072;50.678;13.938;2023-07-28T08:26:55;98675.56;;;18.94;100.00
63903;BME280;50072;50.678;13.938;2023-07-28T08:29:21;98674.59;;;18.95;100.00
63903;BME280;50072;50.678;13.938;2023-07-28T08:31:54;98668.75;;;19.13;100.00
63903;BME280;50072;50.678;13.938;2023-07-28T08:34:24;98672.13;;;19.39;100.00
63903;BME280;50072;50.678;13.938;2023-07-28T08:36:51;98678.47;;;19.51;100.00
63903;BME280;50072;50.678;13.938;2023-07-28T08:39:24;98668.78;;;19.71;100.00
63903;BME280;50072;50.678;13.938;2023-07-28T08:42:02;98680.00;;;19.78;100.00
63903;BME280;50072;50.678;13.938;2023-07-28T08:44:36;98673.13;;;19.96;100.00
63903;BME280;50072;50.678;13.938;2023-07-28T08:47:04;98669.81;;;20.27;100.00
63903;BME280;50072;50.678;13.938;2023-07-28T08:49:34;98678.91;;;20.60;100.00
63903;BME280;50072;50.678;13.938;2023-07-28T08:52:03;98672.84;;;21.11;100.00
63903;BME280;50072;50.678;13.938;2023-07-28T08:54:31;98682.09;;;21.41;100.00
63903;BME280;50072;50.678;13.938;2023-07-28T08:57:03;98691.44;;;21.60;100.00
63903;BME280;50072;50.678;13.938;2023-07-28T08:59:30;98686.56;;;21.42;100.00
63903;BME280;50072;50.678;13.938;2023-07-28T09:01:57;98676.13;;;21.47;100.00
63903;BME280;50072;50.678;13.938;2023-07-28T09:04:25;98674.00;;;21.51;100.00
63903;BME280;50072;50.678;13.938;2023-07-28T09:06:52;98690.56;;;21.80;100.00
63903;BME280;50072;50.678;13.938;2023-07-28T09:09:21;98697.22;;;21.66;100.00
63903;BME280;50072;50.678;13.938;2023-07-28T09:11:50;98696.06;;;21.69;100.00
63903;BME280;50072;50.678;13.938;2023-07-28T09:14:18;98699.63;;;21.60;100.00
63903;BME280;50072;50.678;13.938;2023-07-28T09:16:47;98702.63;;;21.45;100.00
63903;BME280;50072;50.678;13.938;2023-07-28T09:19:17;98702.88;;;21.53;100.00
63903;BME280;50072;50.678;13.938;2023-07-28T09:21:43;98702.47;;;21.79;100.00
63903;BME280;50072;50.678;13.938;2023-07-28T09:24:13;98704.41;;;22.19;100.00
63903;BME280;50072;50.678;13.938;2023-07-28T09:26:46;98696.50;;;22.47;100.00
63903;BME280;50072;50.678;13.938;2023-07-28T09:29:20;98692.91;;;22.87;100.00
63903;BME280;50072;50.678;13.938;2023-07-28T09:31:48;98693.94;;;23.45;100.00
63903;BME280;50072;50.678;13.938;2023-07-28T09:34:27;98686.88;;;23.72;100.00
63903;BME280;50072;50.678;13.938;2023-07-28T09:36:54;98694.03;;;23.92;100.00
63903;BME280;50072;50.678;13.938;2023-07-28T09:39:24;98687.41;;;24.05;100.00
63903;BME280;50072;50.678;13.938;2023-07-28T09:41:53;98688.78;;;24.19;97.74
63903;BME280;50072;50.678;13.938;2023-07-28T09:44:24;98691.28;;;24.40;96.40
63903;BME280;50072;50.678;13.938;2023-07-28T09:46:56;98682.28;;;24.57;99.69
63903;BME280;50072;50.678;13.938;2023-07-28T09:49:36;98684.78;;;24.78;94.81
63903;BME280;50072;50.678;13.938;2023-07-28T09:52:14;98684.03;;;25.04;96.82
63903;BME280;50072;50.678;13.938;2023-07-28T09:54:48;98687.53;;;24.96;95.90
63903;BME280;50072;50.678;13.938;2023-07-28T09:57:20;98683.56;;;25.09;92.53
63903;BME280;50072;50.678;13.938;2023-07-28T09:59:54;98690.16;;;24.88;95.22
63903;BME280;50072;50.678;13.938;2023-07-28T10:02:22;98696.75;;;24.40;94.02
63903;BME280;50072;50.678;13.938;2023-07-28T10:04:49;98691.13;;;24.04;100.00
63903;BME280;50072;50.678;13.938;2023-07-28T10:07:20;98695.69;;;23.36;100.00
63903;BME280;50072;50.678;13.938;2023-07-28T10:09:49;98691.22;;;23.55;100.00
63903;BME280;50072;50.678;13.938;2023-07-28T10:12:25;98696.31;;;23.97;99.83
63903;BME280;50072;50.678;13.938;2023-07-28T10:15:03;98692.69;;;24.16;95.23
63903;BME280;50072;50.678;13.938;2023-07-28T10:17:44;98699.59;;;24.48;94.15
63903;BME280;50072;50.678;13.938;2023-07-28T10:20:34;98698.44;;;24.13;97.30
63903;BME280;50072;50.678;13.938;2023-07-28T10:23:04;98692.34;;;24.29;97.27
63903;BME280;50072;50.678;13.938;2023-07-28T10:25:36;98699.00;;;24.54;87.54
63903;BME280;50072;50.678;13.938;2023-07-28T10:28:03;98696.31;;;24.44;87.64
63903;BME280;50072;50.678;13.938;2023-07-28T10:30:51;98702.03;;;25.25;82.95
63903;BME280;50072;50.678;13.938;2023-07-28T10:35:53;98689.66;;;25.21;79.55
63903;BME280;50072;50.678;13.938;2023-07-28T10:38:35;98691.13;;;24.79;80.23
63903;BME280;50072;50.678;13.938;2023-07-28T10:41:08;98690.34;;;24.87;84.39
63903;BME280;50072;50.678;13.938;2023-07-28T10:43:36;98691.59;;;24.92;86.52
63903;BME280;50072;50.678;13.938;2023-07-28T10:46:04;98694.00;;;24.95;90.53
63903;BME280;50072;50.678;13.938;2023-07-28T10:48:31;98690.28;;;24.96;89.80
63903;BME280;50072;50.678;13.938;2023-07-28T10:50:57;98702.53;;;24.74;88.08
63903;BME280;50072;50.678;13.938;2023-07-28T10:53:23;98700.94;;;24.72;80.78
63903;BME280;50072;50.678;13.938;2023-07-28T10:55:50;98700.31;;;24.50;81.07
63903;BME280;50072;50.678;13.938;2023-07-28T10:58:16;98705.31;;;24.55;79.01
63903;BME280;50072;50.678;13.938;2023-07-28T11:00:43;98707.75;;;24.68;80.40
63903;BME280;50072;50.678;13.938;2023-07-28T11:03:12;98703.22;;;26.29;73.48
63903;BME280;50072;50.678;13.938;2023-07-28T11:05:45;98699.97;;;26.25;68.10
63903;BME280;50072;50.678;13.938;2023-07-28T11:08:13;98702.66;;;28.51;59.29
63903;BME280;50072;50.678;13.938;2023-07-28T11:10:40;98694.69;;;26.75;62.14
63903;BME280;50072;50.678;13.938;2023-07-28T11:13:11;98699.16;;;26.07;61.68
63903;BME280;50072;50.678;13.938;2023-07-28T11:15:37;98691.06;;;25.07;66.01
63903;BME280;50072;50.678;13.938;2023-07-28T11:18:03;98685.19;;;25.02;66.03
63903;BME280;50072;50.678;13.938;2023-07-28T11:20:32;98686.94;;;24.47;64.84
63903;BME280;50072;50.678;13.938;2023-07-28T11:23:03;98680.75;;;24.17;68.67
63903;BME280;50072;50.678;13.938;2023-07-28T11:25:33;98690.38;;;25.41;65.23
63903;BME280;50072;50.678;13.938;2023-07-28T11:28:03;98679.00;;;27.01;57.70
63903;BME280;50072;50.678;13.938;2023-07-28T11:30:36;98686.06;;;27.29;57.01
63903;BME280;50072;50.678;13.938;2023-07-28T11:33:03;98689.00;;;26.33;60.61
63903;BME280;50072;50.678;13.938;2023-07-28T11:35:29;98689.06;;;25.89;62.00
63903;BME280;50072;50.678;13.938;2023-07-28T11:37:55;98688.75;;;25.48;63.09
63903;BME280;50072;50.678;13.938;2023-07-28T11:40:25;98691.69;;;25.01;63.49
63903;BME280;50072;50.678;13.938;2023-07-28T11:42:54;98681.28;;;24.86;65.25
63903;BME280;50072;50.678;13.938;2023-07-28T11:45:22;98691.22;;;25.23;63.12
63903;BME280;50072;50.678;13.938;2023-07-28T11:48:04;98685.78;;;27.40;55.78
63903;BME280;50072;50.678;13.938;2023-07-28T11:50:41;98679.31;;;26.90;56.83
63903;BME280;50072;50.678;13.938;2023-07-28T11:53:09;98689.16;;;26.32;58.36
63903;BME280;50072;50.678;13.938;2023-07-28T11:55:39;98697.22;;;25.81;59.22
63903;BME280;50072;50.678;13.938;2023-07-28T11:58:24;98703.00;;;26.22;59.16
63903;BME280;50072;50.678;13.938;2023-07-28T12:00:53;98699.84;;;25.64;59.86
63903;BME280;50072;50.678;13.938;2023-07-28T12:03:18;98713.78;;;25.97;58.08
63903;BME280;50072;50.678;13.938;2023-07-28T12:06:05;98706.56;;;25.96;58.35
63903;BME280;50072;50.678;13.938;2023-07-28T12:09:03;98703.09;;;25.68;58.56
63903;BME280;50072;50.678;13.938;2023-07-28T12:11:29;98703.19;;;25.22;59.73
63903;BME280;50072;50.678;13.938;2023-07-28T12:13:56;98700.63;;;29.47;48.97
63903;BME280;50072;50.678;13.938;2023-07-28T12:16:41;98701.50;;;28.37;48.59
63903;BME280;50072;50.678;13.938;2023-07-28T12:19:13;98702.78;;;27.35;53.15
63903;BME280;50072;50.678;13.938;2023-07-28T12:21:39;98701.31;;;26.56;54.61
63903;BME280;50072;50.678;13.938;2023-07-28T12:24:05;98694.19;;;26.45;54.88
63903;BME280;50072;50.678;13.938;2023-07-28T12:26:31;98694.09;;;26.20;54.54
63903;BME280;50072;50.678;13.938;2023-07-28T12:28:58;98699.28;;;26.31;54.46
63903;BME280;50072;50.678;13.938;2023-07-28T12:31:24;98688.41;;;26.99;52.49
63903;BME280;50072;50.678;13.938;2023-07-28T12:33:50;98697.81;;;30.46;44.72
63903;BME280;50072;50.678;13.938;2023-07-28T12:36:16;98696.75;;;32.22;40.84
63903;BME280;50072;50.678;13.938;2023-07-28T12:38:42;98694.84;;;32.93;37.71
63903;BME280;50072;50.678;13.938;2023-07-28T12:41:08;98691.88;;;30.20;44.37
63903;BME280;50072;50.678;13.938;2023-07-28T12:43:34;98683.84;;;29.02;46.61
63903;BME280;50072;50.678;13.938;2023-07-28T12:46:00;98690.16;;;28.32;47.70
63903;BME280;50072;50.678;13.938;2023-07-28T12:48:26;98685.94;;;30.46;44.05
63903;BME280;50072;50.678;13.938;2023-07-28T12:50:52;98688.53;;;30.84;41.90
63903;BME280;50072;50.678;13.938;2023-07-28T12:53:18;98687.09;;;34.57;35.22
63903;BME280;50072;50.678;13.938;2023-07-28T12:55:44;98685.06;;;37.00;32.57